Time;durP1;ratioP1;P1;durP2;ratioP2;P2;SDS_P1;SDS_P2;PMS_P1;PMS_P2;Temp;Humidity;BMP_temperature;BMP_pressure;BME280_temperature;BME280_humidity;BME280_pressure;Samples;Min_cycle;Max_cycle;Signal;HPM_P1;HPM_P2
2022/01/16 00:00:26;;;;;;;75.35;33.97;;;;;;;;;;5093834;28;20070;-61
2022/01/16 00:05:29;;;;;;;71.90;34.72;;;;;;;;;;5095169;28;20536;-62
2022/01/16 00:07:56;;;;;;;72.38;33.92;;;;;;;;;;5094733;28;20051;-62
2022/01/16 00:10:24;;;;;;;74.25;35.03;;;;;;;;;;5097155;28;20390;-62
2022/01/16 00:12:52;;;;;;;70.53;32.92;;;;;;;;;;5073287;28;20070;-62
2022/01/16 00:15:22;;;;;;;73.15;33.90;;;;;;;;;;5119791;27;20502;-63
2022/01/16 00:17:55;;;;;;;78.07;36.95;;;;;;;;;;5095926;28;20502;-61
2022/01/16 00:20:22;;;;;;;78.72;36.13;;;;;;;;;;5120206;27;20572;-61
2022/01/16 00:22:49;;;;;;;82.53;37.50;;;;;;;;;;5084967;28;20090;-62
2022/01/16 00:25:16;;;;;;;77.35;35.42;;;;;;;;;;5090915;28;20043;-62
2022/01/16 00:27:42;;;;;;;86.10;39.83;;;;;;;;;;5094019;28;20040;-61
2022/01/16 00:30:09;;;;;;;86.43;38.40;;;;;;;;;;5092717;28;20039;-61
2022/01/16 00:32:35;;;;;;;84.00;36.58;;;;;;;;;;5069740;28;20040;-61
2022/01/16 00:35:01;;;;;;;94.72;41.75;;;;;;;;;;5094907;28;20394;-62
2022/01/16 00:37:27;;;;;;;92.63;40.45;;;;;;;;;;5072301;28;20046;-62
2022/01/16 00:39:53;;;;;;;91.07;38.10;;;;;;;;;;5097117;28;20039;-62
2022/01/16 00:42:20;;;;;;;100.00;40.13;;;;;;;;;;5078512;28;20097;-61
2022/01/16 00:44:46;;;;;;;104.15;42.72;;;;;;;;;;5091051;28;20043;-62
2022/01/16 00:47:12;;;;;;;114.30;45.00;;;;;;;;;;5074302;28;20063;-62
2022/01/16 00:49:39;;;;;;;104.13;42.38;;;;;;;;;;5076606;28;20131;-62
2022/01/16 00:52:09;;;;;;;111.60;44.97;;;;;;;;;;5089446;28;20036;-62
2022/01/16 00:54:36;;;;;;;118.50;46.05;;;;;;;;;;5091159;28;20043;-62
2022/01/16 00:57:02;;;;;;;110.07;42.53;;;;;;;;;;5066841;28;20040;-62
2022/01/16 00:59:28;;;;;;;109.10;42.65;;;;;;;;;;5095764;28;20073;-62
2022/01/16 01:01:54;;;;;;;108.00;43.80;;;;;;;;;;5088633;28;20521;-62
2022/01/16 01:04:20;;;;;;;101.10;39.90;;;;;;;;;;5071040;28;20746;-62
2022/01/16 01:06:49;;;;;;;105.10;40.38;;;;;;;;;;5094076;28;20116;-60
2022/01/16 01:09:15;;;;;;;118.38;44.38;;;;;;;;;;5120865;27;20097;-60
2022/01/16 01:12:06;;;;;;;117.70;42.10;;;;;;;;;;5096080;28;20474;-60
2022/01/16 01:14:41;;;;;;;125.95;43.20;;;;;;;;;;5091234;28;20512;-62
2022/01/16 01:17:09;;;;;;;129.43;44.95;;;;;;;;;;5118184;27;20055;-61
2022/01/16 01:19:35;;;;;;;140.32;46.67;;;;;;;;;;5090370;28;20751;-61
2022/01/16 01:22:04;;;;;;;119.45;40.95;;;;;;;;;;5089955;28;20036;-62
2022/01/16 01:24:31;;;;;;;103.47;35.78;;;;;;;;;;5090033;28;20036;-61
2022/01/16 01:27:41;;;;;;;99.63;36.15;;;;;;;;;;5091278;28;20051;-61
2022/01/16 01:29:54;;;;;;;89.13;35.22;;;;;;;;;;5082652;28;20047;-61
2022/01/16 01:32:20;;;;;;;100.45;38.53;;;;;;;;;;5093407;28;20051;-60
2022/01/16 01:34:46;;;;;;;102.45;39.22;;;;;;;;;;5088900;28;20107;-60
2022/01/16 01:37:12;;;;;;;104.10;38.63;;;;;;;;;;5089921;28;20107;-60
2022/01/16 01:39:38;;;;;;;98.95;39.88;;;;;;;;;;5089798;28;20473;-63
2022/01/16 01:42:10;;;;;;;104.78;41.42;;;;;;;;;;5086030;28;20036;-63
2022/01/16 01:52:51;;;;;;;109.15;41.67;;;;;;;;;;5093103;28;20107;-62
2022/01/16 01:55:18;;;;;;;112.75;43.78;;;;;;;;;;5089580;28;20036;-62
2022/01/16 01:57:44;;;;;;;105.90;43.80;;;;;;;;;;5088633;28;20074;-61
2022/01/16 02:00:17;;;;;;;101.55;40.72;;;;;;;;;;5090263;28;20537;-61
2022/01/16 02:05:28;;;;;;;94.70;40.03;;;;;;;;;;5090238;28;20181;-61
2022/01/16 02:07:55;;;;;;;102.50;43.13;;;;;;;;;;5067754;28;20660;-61
2022/01/16 02:10:21;;;;;;;99.60;41.20;;;;;;;;;;5092315;28;20123;-62
2022/01/16 02:12:55;;;;;;;105.13;44.45;;;;;;;;;;5091307;28;20040;-63
2022/01/16 02:32:45;;;;;;;113.47;47.65;;;;;;;;;;5089753;28;20068;-63
2022/01/16 02:34:45;;;;;;;130.25;52.03;;;;;;;;;;5088613;28;20382;-62
2022/01/16 02:37:14;;;;;;;122.03;48.58;;;;;;;;;;5093379;28;20051;-61
2022/01/16 02:39:42;;;;;;;133.18;49.50;;;;;;;;;;5088690;28;20044;-62
2022/01/16 02:42:10;;;;;;;145.27;54.88;;;;;;;;;;5089690;28;20379;-62
2022/01/16 02:44:48;;;;;;;148.77;55.35;;;;;;;;;;5087628;28;20040;-62
2022/01/16 02:47:17;;;;;;;143.35;52.25;;;;;;;;;;5092238;28;20051;-60
2022/01/16 02:49:44;;;;;;;147.55;53.13;;;;;;;;;;5086270;28;20154;-61
2022/01/16 02:52:12;;;;;;;156.68;58.28;;;;;;;;;;5090349;28;20043;-61
2022/01/16 02:54:40;;;;;;;144.63;52.97;;;;;;;;;;5088570;28;20044;-61
2022/01/16 02:57:07;;;;;;;152.23;53.65;;;;;;;;;;5071509;28;20043;-61
2022/01/16 02:59:34;;;;;;;146.85;56.58;;;;;;;;;;5088137;28;20118;-60
2022/01/16 03:02:01;;;;;;;140.73;51.80;;;;;;;;;;5087316;28;20079;-59
2022/01/16 03:04:28;;;;;;;151.82;57.97;;;;;;;;;;5090430;28;20404;-60
2022/01/16 03:06:55;;;;;;;149.73;52.70;;;;;;;;;;5087462;28;20046;-60
2022/01/16 03:09:22;;;;;;;164.23;58.08;;;;;;;;;;5090730;28;20314;-60
2022/01/16 03:11:49;;;;;;;148.60;51.25;;;;;;;;;;5095517;28;20043;-60
2022/01/16 03:14:17;;;;;;;160.55;54.75;;;;;;;;;;5092193;28;20048;-60
2022/01/16 03:16:47;;;;;;;159.35;56.95;;;;;;;;;;5086015;28;20044;-60
2022/01/16 03:22:02;;;;;;;159.98;54.78;;;;;;;;;;5089758;28;20499;-60
2022/01/16 03:24:31;;;;;;;162.35;55.22;;;;;;;;;;5090146;28;20027;-60
2022/01/16 03:26:59;;;;;;;158.68;53.47;;;;;;;;;;5088170;28;20058;-60
2022/01/16 03:29:26;;;;;;;163.75;56.67;;;;;;;;;;5089882;28;20047;-60
2022/01/16 03:31:53;;;;;;;180.10;59.65;;;;;;;;;;5090338;28;20185;-60
2022/01/16 03:34:19;;;;;;;174.25;56.60;;;;;;;;;;5090237;28;20631;-60
2022/01/16 03:36:45;;;;;;;196.32;60.83;;;;;;;;;;5068661;28;20040;-61
2022/01/16 03:39:11;;;;;;;196.02;61.47;;;;;;;;;;5093175;28;20520;-61
2022/01/16 03:41:38;;;;;;;210.30;64.78;;;;;;;;;;5088204;28;20036;-60
2022/01/16 03:44:05;;;;;;;210.88;64.28;;;;;;;;;;5086963;28;20027;-61
2022/01/16 03:46:35;;;;;;;223.18;67.65;;;;;;;;;;5089367;28;20044;-60
2022/01/16 03:49:06;;;;;;;196.88;60.05;;;;;;;;;;5098322;28;20594;-60
2022/01/16 03:51:32;;;;;;;217.25;65.05;;;;;;;;;;5089999;28;20044;-61
2022/01/16 03:53:58;;;;;;;204.10;61.75;;;;;;;;;;5072594;28;20093;-60
2022/01/16 03:56:24;;;;;;;184.95;59.70;;;;;;;;;;5092262;28;20047;-62
2022/01/16 03:58:50;;;;;;;203.48;64.32;;;;;;;;;;5094662;28;20126;-62
2022/01/16 04:01:17;;;;;;;192.70;62.10;;;;;;;;;;5091500;28;20046;-61
2022/01/16 04:03:43;;;;;;;203.70;60.70;;;;;;;;;;5093603;28;20096;-60
2022/01/16 04:06:09;;;;;;;199.75;66.35;;;;;;;;;;5094346;28;20370;-60
2022/01/16 04:08:35;;;;;;;218.43;65.93;;;;;;;;;;5089615;28;20125;-61
2022/01/16 04:11:01;;;;;;;215.57;66.50;;;;;;;;;;5092429;28;20090;-61
2022/01/16 04:13:27;;;;;;;217.48;62.80;;;;;;;;;;5090124;28;20062;-60
2022/01/16 04:15:53;;;;;;;212.73;62.25;;;;;;;;;;5091025;28;20444;-60
2022/01/16 04:18:19;;;;;;;223.93;64.90;;;;;;;;;;5092640;28;20044;-61
2022/01/16 04:20:46;;;;;;;225.07;66.53;;;;;;;;;;5091726;28;20051;-62
2022/01/16 04:23:12;;;;;;;222.60;63.85;;;;;;;;;;5089474;28;20170;-61
2022/01/16 04:25:38;;;;;;;213.30;63.25;;;;;;;;;;5091252;28;20088;-62
2022/01/16 04:28:04;;;;;;;220.38;66.88;;;;;;;;;;5091631;28;20055;-62
2022/01/16 04:30:31;;;;;;;230.07;69.63;;;;;;;;;;5092457;28;20535;-61
2022/01/16 04:32:57;;;;;;;226.82;67.43;;;;;;;;;;5091263;28;20054;-63
2022/01/16 04:35:23;;;;;;;229.73;66.78;;;;;;;;;;5091443;28;20070;-62
2022/01/16 04:37:50;;;;;;;207.65;61.60;;;;;;;;;;5089536;28;20366;-62
2022/01/16 04:40:16;;;;;;;225.82;66.13;;;;;;;;;;5094229;28;20385;-62
2022/01/16 04:45:28;;;;;;;236.95;69.68;;;;;;;;;;5093188;28;20127;-62
2022/01/16 04:47:55;;;;;;;223.65;59.08;;;;;;;;;;5092404;28;20047;-62
2022/01/16 04:50:22;;;;;;;246.68;68.22;;;;;;;;;;5091757;28;20040;-61
2022/01/16 04:52:49;;;;;;;241.88;66.97;;;;;;;;;;5088392;28;20043;-61
2022/01/16 04:55:15;;;;;;;244.32;68.05;;;;;;;;;;5093117;28;20032;-61
2022/01/16 04:57:42;;;;;;;243.18;69.03;;;;;;;;;;5090943;28;20072;-62
2022/01/16 05:00:10;;;;;;;245.98;68.28;;;;;;;;;;5092223;28;20040;-62
2022/01/16 05:02:36;;;;;;;254.13;70.85;;;;;;;;;;5090632;28;20039;-61
2022/01/16 05:05:02;;;;;;;249.00;68.70;;;;;;;;;;5094422;28;20036;-61
2022/01/16 05:07:28;;;;;;;257.08;71.20;;;;;;;;;;5092129;28;20123;-61
2022/01/16 05:09:54;;;;;;;259.40;70.15;;;;;;;;;;5089271;28;20044;-62
2022/01/16 05:12:29;;;;;;;246.23;68.30;;;;;;;;;;5087195;28;20438;-62
2022/01/16 05:17:40;;;;;;;251.10;70.05;;;;;;;;;;5095007;27;20044;-62
2022/01/16 05:20:06;;;;;;;223.57;63.42;;;;;;;;;;5086731;28;20161;-62
2022/01/16 05:22:32;;;;;;;255.45;68.13;;;;;;;;;;5095332;28;20173;-61
2022/01/16 05:24:58;;;;;;;239.15;68.15;;;;;;;;;;5075003;28;20040;-62
2022/01/16 05:27:24;;;;;;;252.48;68.65;;;;;;;;;;5094969;28;20085;-62
2022/01/16 05:29:50;;;;;;;257.15;70.93;;;;;;;;;;5086842;28;20140;-63
2022/01/16 05:32:16;;;;;;;243.35;69.63;;;;;;;;;;5088671;28;20079;-62
2022/01/16 05:34:43;;;;;;;241.68;68.88;;;;;;;;;;5088745;28;20057;-62
2022/01/16 05:37:09;;;;;;;266.63;70.95;;;;;;;;;;5089046;28;20075;-62
2022/01/16 05:39:35;;;;;;;221.30;59.08;;;;;;;;;;5096059;28;20043;-61
2022/01/16 05:42:01;;;;;;;247.52;66.80;;;;;;;;;;5091978;28;20082;-62
2022/01/16 05:44:27;;;;;;;266.55;71.15;;;;;;;;;;5089607;28;20036;-62
2022/01/16 05:46:53;;;;;;;228.68;62.95;;;;;;;;;;5092163;28;20563;-61
2022/01/16 05:49:20;;;;;;;260.73;71.53;;;;;;;;;;5088118;28;21850;-61
2022/01/16 05:51:46;;;;;;;228.60;61.25;;;;;;;;;;5092678;28;20075;-61
2022/01/16 05:54:12;;;;;;;259.00;68.53;;;;;;;;;;5090880;28;20050;-61
2022/01/16 05:56:38;;;;;;;245.57;66.47;;;;;;;;;;5090579;28;20119;-62
2022/01/16 05:59:04;;;;;;;232.73;66.78;;;;;;;;;;5087021;28;20063;-62
2022/01/16 06:01:30;;;;;;;247.00;68.55;;;;;;;;;;5088649;28;20048;-62
2022/01/16 06:03:57;;;;;;;233.18;59.53;;;;;;;;;;5074905;28;20075;-62
2022/01/16 06:06:23;;;;;;;242.35;67.22;;;;;;;;;;5088563;28;20043;-62
2022/01/16 06:08:49;;;;;;;257.83;66.50;;;;;;;;;;5087749;28;20089;-61
2022/01/16 06:11:15;;;;;;;243.57;63.80;;;;;;;;;;5095218;28;20039;-60
2022/01/16 06:13:41;;;;;;;252.10;68.47;;;;;;;;;;5094627;28;20043;-62
2022/01/16 06:16:08;;;;;;;250.43;64.82;;;;;;;;;;5091558;28;20043;-62
2022/01/16 06:18:34;;;;;;;266.83;69.30;;;;;;;;;;5091172;28;20054;-62
2022/01/16 06:21:00;;;;;;;258.17;66.05;;;;;;;;;;5069412;28;20047;-64
2022/01/16 06:23:26;;;;;;;256.83;66.53;;;;;;;;;;5090857;28;20051;-63
2022/01/16 06:25:54;;;;;;;276.50;67.57;;;;;;;;;;5090377;28;20513;-64
2022/01/16 06:28:24;;;;;;;270.05;65.90;;;;;;;;;;5068000;28;20048;-62
2022/01/16 06:30:51;;;;;;;271.42;69.03;;;;;;;;;;5090807;28;20055;-62
2022/01/16 06:33:17;;;;;;;279.15;67.10;;;;;;;;;;5088320;28;20089;-62
2022/01/16 06:35:43;;;;;;;261.90;63.15;;;;;;;;;;5088791;28;20051;-61
2022/01/16 06:38:09;;;;;;;289.55;69.90;;;;;;;;;;5089781;28;20472;-62
2022/01/16 06:40:35;;;;;;;274.33;66.55;;;;;;;;;;5089973;28;20537;-62
2022/01/16 06:43:01;;;;;;;306.92;72.35;;;;;;;;;;5096836;28;20044;-62
2022/01/16 06:45:28;;;;;;;264.70;66.50;;;;;;;;;;5078809;28;20075;-62
2022/01/16 06:47:54;;;;;;;266.55;63.08;;;;;;;;;;5096860;28;20047;-62
2022/01/16 06:50:20;;;;;;;283.58;68.35;;;;;;;;;;5090420;28;20039;-61
2022/01/16 06:52:47;;;;;;;271.63;67.80;;;;;;;;;;5088385;28;20127;-61
2022/01/16 06:55:13;;;;;;;264.42;69.22;;;;;;;;;;5072732;28;20047;-61
2022/01/16 06:57:39;;;;;;;262.98;68.50;;;;;;;;;;5089224;28;20036;-60
2022/01/16 07:00:06;;;;;;;280.55;71.50;;;;;;;;;;5072714;28;20089;-62
2022/01/16 07:02:32;;;;;;;262.77;72.32;;;;;;;;;;5090742;28;20036;-60
2022/01/16 07:04:58;;;;;;;292.80;72.82;;;;;;;;;;5090982;28;20356;-61
2022/01/16 07:07:24;;;;;;;250.50;70.95;;;;;;;;;;5089156;28;20047;-60
2022/01/16 07:09:50;;;;;;;266.08;69.50;;;;;;;;;;5084038;28;20033;-60
2022/01/16 07:12:16;;;;;;;260.30;69.35;;;;;;;;;;5088093;28;20027;-60
2022/01/16 07:14:43;;;;;;;281.23;73.43;;;;;;;;;;5091241;28;20111;-60
2022/01/16 07:17:09;;;;;;;274.50;73.30;;;;;;;;;;5090831;28;20036;-61
2022/01/16 07:19:35;;;;;;;284.15;72.95;;;;;;;;;;5090459;28;20031;-60
2022/01/16 07:22:02;;;;;;;251.13;67.38;;;;;;;;;;5093163;28;20035;-61
2022/01/16 07:24:28;;;;;;;266.63;72.50;;;;;;;;;;5094397;28;20119;-61
2022/01/16 07:26:54;;;;;;;266.75;72.95;;;;;;;;;;5094440;28;20041;-61
2022/01/16 07:29:21;;;;;;;264.95;76.50;;;;;;;;;;5095039;28;20205;-62
2022/01/16 07:31:47;;;;;;;245.25;70.13;;;;;;;;;;5100018;28;20483;-60
2022/01/16 07:34:13;;;;;;;269.25;74.90;;;;;;;;;;5093486;28;20518;-60
2022/01/16 07:36:39;;;;;;;257.60;74.53;;;;;;;;;;5074363;28;20031;-60
2022/01/16 07:39:06;;;;;;;251.15;71.00;;;;;;;;;;5095932;28;20136;-60
2022/01/16 07:41:32;;;;;;;242.93;74.03;;;;;;;;;;5093074;28;20039;-62
2022/01/16 07:43:58;;;;;;;253.10;74.75;;;;;;;;;;5091090;28;20051;-60
2022/01/16 07:46:24;;;;;;;254.52;76.88;;;;;;;;;;5095447;28;20048;-60
2022/01/16 07:48:51;;;;;;;255.15;73.85;;;;;;;;;;5098026;28;20162;-60
2022/01/16 07:51:17;;;;;;;218.63;65.63;;;;;;;;;;5092937;28;20039;-60
2022/01/16 07:53:43;;;;;;;248.15;74.57;;;;;;;;;;5077473;28;20530;-61
2022/01/16 07:56:09;;;;;;;238.88;74.57;;;;;;;;;;5097563;28;20168;-62
2022/01/16 07:58:36;;;;;;;246.65;74.05;;;;;;;;;;5093818;28;20551;-62
2022/01/16 08:01:03;;;;;;;220.70;72.20;;;;;;;;;;5074335;28;20044;-62
2022/01/16 08:03:29;;;;;;;235.50;78.95;;;;;;;;;;5093104;28;20097;-62
2022/01/16 08:05:55;;;;;;;207.43;68.53;;;;;;;;;;5088214;28;20137;-61
2022/01/16 08:08:21;;;;;;;217.75;73.35;;;;;;;;;;5105362;28;20188;-62
2022/01/16 08:10:47;;;;;;;211.20;73.40;;;;;;;;;;5093922;28;20119;-63
2022/01/16 08:13:13;;;;;;;216.60;74.55;;;;;;;;;;5094057;28;20036;-63
2022/01/16 08:15:40;;;;;;;205.45;74.00;;;;;;;;;;5092051;28;20047;-61
2022/01/16 08:18:06;;;;;;;198.18;74.50;;;;;;;;;;5093638;28;20115;-61
2022/01/16 08:20:32;;;;;;;189.30;69.13;;;;;;;;;;5095904;28;20048;-60
2022/01/16 08:22:58;;;;;;;182.55;71.03;;;;;;;;;;5078367;28;20346;-61
2022/01/16 08:25:25;;;;;;;168.63;69.05;;;;;;;;;;5094033;28;20409;-60
2022/01/16 08:27:51;;;;;;;166.00;67.20;;;;;;;;;;5073789;28;20044;-60
2022/01/16 08:30:17;;;;;;;166.15;69.13;;;;;;;;;;5093934;28;20125;-62
2022/01/16 08:32:44;;;;;;;161.80;67.40;;;;;;;;;;5078727;28;20045;-62
2022/01/16 08:35:10;;;;;;;151.80;64.05;;;;;;;;;;5089812;28;20044;-62
2022/01/16 08:37:36;;;;;;;115.80;53.67;;;;;;;;;;5093964;28;20032;-60
2022/01/16 08:40:04;;;;;;;135.68;60.80;;;;;;;;;;5093827;28;20089;-61
2022/01/16 08:42:30;;;;;;;126.53;61.67;;;;;;;;;;5087829;28;20051;-61
2022/01/16 08:44:56;;;;;;;118.30;58.65;;;;;;;;;;5088527;28;20450;-61
2022/01/16 08:47:22;;;;;;;100.72;52.00;;;;;;;;;;5075740;28;20475;-62
2022/01/16 08:49:48;;;;;;;95.57;51.65;;;;;;;;;;5090407;28;20443;-63
2022/01/16 08:52:17;;;;;;;99.33;50.87;;;;;;;;;;5072901;28;20470;-62
2022/01/16 08:54:43;;;;;;;106.07;53.50;;;;;;;;;;5084377;28;20043;-63
2022/01/16 08:57:09;;;;;;;95.80;52.50;;;;;;;;;;5086896;28;20086;-63
2022/01/16 08:59:35;;;;;;;92.75;52.50;;;;;;;;;;5090794;28;20040;-62
2022/01/16 09:02:01;;;;;;;91.40;50.47;;;;;;;;;;5096315;28;20072;-62
2022/01/16 09:04:27;;;;;;;96.70;51.90;;;;;;;;;;5090593;28;20101;-61
2022/01/16 09:06:53;;;;;;;83.63;46.03;;;;;;;;;;5087927;28;20043;-60
2022/01/16 09:09:23;;;;;;;89.07;51.40;;;;;;;;;;5086242;28;20798;-62
2022/01/16 09:11:49;;;;;;;80.28;47.90;;;;;;;;;;5102823;28;20044;-61
2022/01/16 09:14:15;;;;;;;81.88;47.45;;;;;;;;;;5085629;28;20055;-61
2022/01/16 09:16:41;;;;;;;84.18;49.25;;;;;;;;;;5085467;28;20120;-62
2022/01/16 09:19:07;;;;;;;71.85;45.08;;;;;;;;;;5084683;28;20040;-62
2022/01/16 09:21:33;;;;;;;82.05;46.45;;;;;;;;;;5087804;28;20570;-63
2022/01/16 09:23:59;;;;;;;76.32;43.22;;;;;;;;;;5087665;28;20044;-62
2022/01/16 09:26:27;;;;;;;76.88;45.83;;;;;;;;;;5089026;28;20069;-62
2022/01/16 09:28:53;;;;;;;72.05;46.08;;;;;;;;;;5068765;28;20465;-63
2022/01/16 09:31:20;;;;;;;81.35;47.85;;;;;;;;;;5085618;28;20490;-62
2022/01/16 09:33:46;;;;;;;80.53;46.55;;;;;;;;;;5087779;28;20035;-62
2022/01/16 09:36:12;;;;;;;69.18;41.90;;;;;;;;;;5069957;28;20291;-62
2022/01/16 09:38:39;;;;;;;76.70;46.40;;;;;;;;;;5120775;27;20052;-62
2022/01/16 09:41:06;;;;;;;73.65;45.97;;;;;;;;;;5088975;28;20035;-63
2022/01/16 09:43:33;;;;;;;61.80;37.17;;;;;;;;;;5087563;28;20647;-62
2022/01/16 09:46:00;;;;;;;71.22;44.10;;;;;;;;;;5087903;28;20036;-61
2022/01/16 09:48:26;;;;;;;69.47;43.20;;;;;;;;;;5089497;28;20470;-62
2022/01/16 09:50:52;;;;;;;65.82;40.88;;;;;;;;;;5076756;28;20119;-61
2022/01/16 09:53:18;;;;;;;72.57;43.67;;;;;;;;;;5074883;28;20296;-61
2022/01/16 09:55:44;;;;;;;67.50;39.40;;;;;;;;;;5089618;28;20147;-61
2022/01/16 09:58:10;;;;;;;65.07;41.33;;;;;;;;;;5089615;28;20039;-62
2022/01/16 10:00:36;;;;;;;64.20;40.92;;;;;;;;;;5084874;28;20036;-62
2022/01/16 10:03:03;;;;;;;61.08;37.13;;;;;;;;;;5087939;28;20069;-62
2022/01/16 10:05:37;;;;;;;59.78;40.58;;;;;;;;;;5089515;28;20040;-62
2022/01/16 10:08:23;;;;;;;65.00;38.47;;;;;;;;;;5091109;28;20070;-62
2022/01/16 10:10:50;;;;;;;66.28;42.40;;;;;;;;;;5087179;28;20050;-63
2022/01/16 10:13:21;;;;;;;59.65;38.63;;;;;;;;;;5087755;28;20058;-62
2022/01/16 10:15:55;;;;;;;67.47;43.13;;;;;;;;;;5099406;28;20040;-63
2022/01/16 10:18:34;;;;;;;71.63;45.72;;;;;;;;;;5086402;28;20040;-62
2022/01/16 10:21:00;;;;;;;65.45;41.67;;;;;;;;;;5100972;27;20048;-62
2022/01/16 10:23:26;;;;;;;66.85;41.15;;;;;;;;;;5088095;28;20119;-62
2022/01/16 10:25:52;;;;;;;64.03;40.97;;;;;;;;;;5088692;28;20040;-63
2022/01/16 10:28:20;;;;;;;60.85;38.63;;;;;;;;;;5070632;28;20078;-64
2022/01/16 10:30:48;;;;;;;54.78;35.97;;;;;;;;;;5068340;28;20123;-62
2022/01/16 10:33:16;;;;;;;59.80;40.13;;;;;;;;;;5085926;28;20090;-60
2022/01/16 10:35:44;;;;;;;62.83;40.05;;;;;;;;;;5086480;28;20164;-60
2022/01/16 10:38:16;;;;;;;58.13;36.67;;;;;;;;;;5089969;28;20039;-60
2022/01/16 10:40:44;;;;;;;61.47;37.72;;;;;;;;;;5088726;28;20044;-61
2022/01/16 10:43:15;;;;;;;62.13;39.13;;;;;;;;;;5089361;28;20559;-62
2022/01/16 10:45:43;;;;;;;59.53;32.30;;;;;;;;;;5086871;28;20051;-61
2022/01/16 10:48:10;;;;;;;64.40;38.80;;;;;;;;;;5070328;28;20047;-62
2022/01/16 10:50:38;;;;;;;56.47;34.75;;;;;;;;;;5092755;28;20052;-62
2022/01/16 10:53:09;;;;;;;62.50;36.47;;;;;;;;;;5117336;28;20043;-61
2022/01/16 10:55:36;;;;;;;66.10;37.40;;;;;;;;;;5075343;28;20036;-61
2022/01/16 10:58:03;;;;;;;65.80;38.08;;;;;;;;;;5096196;28;20482;-62
2022/01/16 11:00:29;;;;;;;68.97;40.83;;;;;;;;;;5095893;28;20057;-62
2022/01/16 11:02:58;;;;;;;59.50;38.97;;;;;;;;;;5091089;28;20681;-62
2022/01/16 11:05:26;;;;;;;70.97;41.85;;;;;;;;;;5049254;28;174083;-62
2022/01/16 11:07:59;;;;;;;66.85;39.00;;;;;;;;;;5034060;28;20166;-64
2022/01/16 11:10:27;;;;;;;63.35;36.42;;;;;;;;;;5044520;28;20053;-62
2022/01/16 11:12:58;;;;;;;69.55;42.05;;;;;;;;;;5017260;28;20152;-62
2022/01/16 11:15:25;;;;;;;71.55;41.15;;;;;;;;;;5037070;28;20049;-63
2022/01/16 11:17:52;;;;;;;70.57;40.25;;;;;;;;;;5045796;28;20473;-61
2022/01/16 11:20:23;;;;;;;63.08;39.80;;;;;;;;;;5037791;28;20056;-62
2022/01/16 11:23:01;;;;;;;69.45;41.20;;;;;;;;;;5063949;28;20171;-61
2022/01/16 11:25:34;;;;;;;80.90;44.65;;;;;;;;;;5029941;28;20495;-61
2022/01/16 11:28:11;;;;;;;78.78;45.85;;;;;;;;;;5030599;28;20511;-62
2022/01/16 11:30:38;;;;;;;69.90;42.85;;;;;;;;;;5038263;28;20495;-62
2022/01/16 11:33:05;;;;;;;79.18;43.13;;;;;;;;;;5035618;28;20045;-62
2022/01/16 11:35:40;;;;;;;78.80;44.58;;;;;;;;;;5033704;28;20510;-62
2022/01/16 11:38:06;;;;;;;65.80;41.72;;;;;;;;;;5034302;28;20045;-62
2022/01/16 11:40:52;;;;;;;76.85;43.47;;;;;;;;;;5038828;28;20044;-63
2022/01/16 11:43:18;;;;;;;74.07;39.88;;;;;;;;;;5041234;28;20341;-62
2022/01/16 11:45:48;;;;;;;68.72;39.75;;;;;;;;;;5026145;28;20056;-63
2022/01/16 11:48:18;;;;;;;70.53;39.90;;;;;;;;;;5042960;28;20045;-61
2022/01/16 11:50:44;;;;;;;67.55;36.95;;;;;;;;;;5015643;28;20494;-61
2022/01/16 11:53:11;;;;;;;71.07;36.90;;;;;;;;;;5017094;28;20151;-61
2022/01/16 11:55:37;;;;;;;63.88;34.30;;;;;;;;;;5015276;28;20038;-61
2022/01/16 11:58:03;;;;;;;56.00;32.83;;;;;;;;;;5008116;28;20050;-62
2022/01/16 12:00:48;;;;;;;63.53;38.10;;;;;;;;;;5043601;28;20052;-62
2022/01/16 12:03:32;;;;;;;58.40;31.75;;;;;;;;;;5009753;28;20042;-61
2022/01/16 12:06:17;;;;;;;57.90;33.50;;;;;;;;;;5007099;28;20423;-61
2022/01/16 12:08:46;;;;;;;53.15;30.88;;;;;;;;;;5006377;28;20486;-61
2022/01/16 12:11:32;;;;;;;47.30;27.02;;;;;;;;;;5007654;28;20041;-60
2022/01/16 12:14:00;;;;;;;50.95;27.75;;;;;;;;;;5009716;28;20062;-61
2022/01/16 12:16:40;;;;;;;45.08;25.33;;;;;;;;;;5023844;28;20077;-62
2022/01/16 12:19:25;;;;;;;54.80;28.17;;;;;;;;;;5042613;28;20465;-61
2022/01/16 12:21:55;;;;;;;43.13;24.75;;;;;;;;;;5026189;28;20125;-62
2022/01/16 12:24:32;;;;;;;48.95;22.13;;;;;;;;;;5011476;28;20055;-61
2022/01/16 12:27:17;;;;;;;47.47;22.23;;;;;;;;;;5011939;28;20041;-63
2022/01/16 12:30:15;;;;;;;38.53;20.40;;;;;;;;;;5006702;28;20557;-61
2022/01/16 12:32:48;;;;;;;40.03;19.50;;;;;;;;;;4964537;28;20054;-61
2022/01/16 12:35:14;;;;;;;46.00;22.00;;;;;;;;;;5009093;28;20121;-63
2022/01/16 12:37:41;;;;;;;34.42;19.00;;;;;;;;;;5007182;28;20091;-61
2022/01/16 12:40:08;;;;;;;33.83;16.88;;;;;;;;;;5043672;28;20623;-62
2022/01/16 12:42:35;;;;;;;39.80;18.55;;;;;;;;;;5013579;28;20099;-61
2022/01/16 12:45:01;;;;;;;33.88;14.68;;;;;;;;;;5016515;28;20560;-62
2022/01/16 12:47:27;;;;;;;33.35;15.93;;;;;;;;;;5029713;28;20034;-62
2022/01/16 12:49:53;;;;;;;33.40;16.15;;;;;;;;;;5014472;28;20389;-61
2022/01/16 12:52:19;;;;;;;33.58;15.77;;;;;;;;;;5016296;28;20053;-61
2022/01/16 12:54:50;;;;;;;34.40;15.32;;;;;;;;;;5017047;28;20548;-61
2022/01/16 12:57:26;;;;;;;30.95;13.57;;;;;;;;;;5033840;28;20120;-62
2022/01/16 12:59:52;;;;;;;32.85;14.23;;;;;;;;;;5018138;28;20187;-62
2022/01/16 13:02:18;;;;;;;32.53;13.98;;;;;;;;;;5012052;28;20038;-63
2022/01/16 13:04:45;;;;;;;23.90;11.52;;;;;;;;;;5023504;28;20376;-62
2022/01/16 13:07:12;;;;;;;25.95;12.70;;;;;;;;;;4970763;28;20044;-62
2022/01/16 13:09:39;;;;;;;29.30;12.70;;;;;;;;;;5002963;28;20057;-63
2022/01/16 13:12:07;;;;;;;22.25;11.10;;;;;;;;;;4989507;28;20056;-63
2022/01/16 13:14:38;;;;;;;22.50;10.90;;;;;;;;;;5008418;28;20101;-63
2022/01/16 13:17:09;;;;;;;24.15;11.48;;;;;;;;;;4989578;28;20068;-63
2022/01/16 13:22:13;;;;;;;26.13;10.90;;;;;;;;;;5006488;28;20495;-63
2022/01/16 13:24:44;;;;;;;24.30;9.10;;;;;;;;;;5008928;28;20049;-63
2022/01/16 13:27:16;;;;;;;27.80;10.13;;;;;;;;;;4990195;28;20088;-62
2022/01/16 13:29:43;;;;;;;21.02;9.15;;;;;;;;;;4991905;28;20053;-62
2022/01/16 13:32:10;;;;;;;21.08;8.57;;;;;;;;;;5009443;28;20050;-62
2022/01/16 13:34:38;;;;;;;25.10;9.40;;;;;;;;;;4991566;28;20046;-62
2022/01/16 13:37:06;;;;;;;22.27;7.90;;;;;;;;;;4992062;28;20048;-62
2022/01/16 13:39:42;;;;;;;21.27;9.02;;;;;;;;;;4991161;28;20484;-61
2022/01/16 13:42:38;;;;;;;22.75;9.73;;;;;;;;;;4991236;28;20523;-62
2022/01/16 13:45:14;;;;;;;19.08;9.13;;;;;;;;;;4991394;28;20052;-62
2022/01/16 13:47:48;;;;;;;23.08;9.43;;;;;;;;;;4990500;28;20042;-62
2022/01/16 13:50:14;;;;;;;15.98;7.43;;;;;;;;;;4991071;28;20053;-62
2022/01/16 13:52:50;;;;;;;25.55;9.25;;;;;;;;;;5009136;28;20096;-62
2022/01/16 13:55:16;;;;;;;19.63;8.43;;;;;;;;;;4991674;28;20052;-62
2022/01/16 13:57:42;;;;;;;20.23;8.40;;;;;;;;;;4991175;28;20042;-62
2022/01/16 14:00:09;;;;;;;17.33;8.52;;;;;;;;;;4974248;28;20050;-62
2022/01/16 14:02:36;;;;;;;21.63;9.32;;;;;;;;;;5008374;28;20049;-62
2022/01/16 14:05:03;;;;;;;17.98;7.75;;;;;;;;;;4990690;28;20100;-63
2022/01/16 14:07:29;;;;;;;22.88;9.38;;;;;;;;;;4990794;28;20037;-63
2022/01/16 14:09:56;;;;;;;26.40;8.90;;;;;;;;;;4990142;28;20058;-63
2022/01/16 14:12:23;;;;;;;23.00;8.98;;;;;;;;;;4991653;28;20416;-62
2022/01/16 14:14:49;;;;;;;20.25;8.93;;;;;;;;;;4991719;28;20149;-63
2022/01/16 14:17:39;;;;;;;24.88;9.15;;;;;;;;;;4974603;28;20045;-62
2022/01/16 14:20:24;;;;;;;16.63;7.75;;;;;;;;;;4990296;28;20096;-62
2022/01/16 14:22:49;;;;;;;19.83;8.98;;;;;;;;;;4977417;28;20046;-62
2022/01/16 14:25:15;;;;;;;22.25;8.45;;;;;;;;;;5008144;28;20121;-62
2022/01/16 14:27:41;;;;;;;18.80;8.85;;;;;;;;;;4995162;28;20100;-63
2022/01/16 14:30:09;;;;;;;21.10;8.55;;;;;;;;;;4983053;28;20046;-61
2022/01/16 14:32:35;;;;;;;22.13;8.40;;;;;;;;;;5013952;28;20515;-61
2022/01/16 14:35:02;;;;;;;21.17;9.15;;;;;;;;;;4992742;28;20121;-62
2022/01/16 14:37:30;;;;;;;24.88;10.65;;;;;;;;;;4994601;28;20099;-61
2022/01/16 14:40:01;;;;;;;22.13;9.10;;;;;;;;;;5016759;28;20418;-61
2022/01/16 14:42:35;;;;;;;20.38;9.32;;;;;;;;;;5008835;28;20045;-63
2022/01/16 14:45:01;;;;;;;21.45;8.45;;;;;;;;;;5007432;28;20048;-63
2022/01/16 14:47:27;;;;;;;22.48;10.05;;;;;;;;;;4987439;28;20468;-62
2022/01/16 14:49:53;;;;;;;29.30;10.18;;;;;;;;;;5008728;28;20473;-62
2022/01/16 14:52:19;;;;;;;22.08;8.57;;;;;;;;;;5004351;28;20050;-62
2022/01/16 14:54:47;;;;;;;18.63;9.07;;;;;;;;;;5006467;28;20088;-64
2022/01/16 14:57:13;;;;;;;21.65;9.70;;;;;;;;;;5005893;28;20050;-63